sensor_id;sensor_type;location;lat;lon;timestamp;P1;durP1;ratioP1;P2;durP2;ratioP2
18689;SDS011;9782;52.930;15.562;2023-03-11T00:00:10;31.20;;;12.73;;
18689;SDS011;9782;52.930;15.562;2023-03-11T00:02:41;27.73;;;12.03;;
18689;SDS011;9782;52.930;15.562;2023-03-11T00:05:08;23.47;;;10.77;;
18689;SDS011;9782;52.930;15.562;2023-03-11T00:07:37;21.13;;;9.63;;
18689;SDS011;9782;52.930;15.562;2023-03-11T00:10:05;33.20;;;14.37;;
18689;SDS011;9782;52.930;15.562;2023-03-11T00:12:32;21.33;;;9.80;;
18689;SDS011;9782;52.930;15.562;2023-03-11T00:15:00;20.90;;;9.97;;
18689;SDS011;9782;52.930;15.562;2023-03-11T00:17:27;21.07;;;9.87;;
18689;SDS011;9782;52.930;15.562;2023-03-11T00:19:54;33.30;;;13.57;;
18689;SDS011;9782;52.930;15.562;2023-03-11T00:22:21;28.93;;;13.50;;
18689;SDS011;9782;52.930;15.562;2023-03-11T00:24:47;26.77;;;11.90;;
18689;SDS011;9782;52.930;15.562;2023-03-11T00:27:14;25.80;;;11.40;;
18689;SDS011;9782;52.930;15.562;2023-03-11T00:29:41;31.60;;;13.67;;
18689;SDS011;9782;52.930;15.562;2023-03-11T00:32:09;24.60;;;12.30;;
18689;SDS011;9782;52.930;15.562;2023-03-11T00:34:36;28.03;;;11.87;;
18689;SDS011;9782;52.930;15.562;2023-03-11T00:37:03;24.80;;;11.30;;
18689;SDS011;9782;52.930;15.562;2023-03-11T00:39:30;22.60;;;11.20;;
18689;SDS011;9782;52.930;15.562;2023-03-11T00:41:56;21.07;;;9.73;;
18689;SDS011;9782;52.930;15.562;2023-03-11T00:44:23;16.20;;;7.23;;
18689;SDS011;9782;52.930;15.562;2023-03-11T00:46:50;14.43;;;6.80;;
18689;SDS011;9782;52.930;15.562;2023-03-11T00:49:19;17.20;;;8.93;;
18689;SDS011;9782;52.930;15.562;2023-03-11T00:51:45;22.90;;;10.30;;
18689;SDS011;9782;52.930;15.562;2023-03-11T00:54:12;22.97;;;10.00;;
18689;SDS011;9782;52.930;15.562;2023-03-11T00:56:39;21.17;;;9.73;;
18689;SDS011;9782;52.930;15.562;2023-03-11T00:59:06;20.70;;;10.27;;
18689;SDS011;9782;52.930;15.562;2023-03-11T01:01:33;14.90;;;7.73;;
18689;SDS011;9782;52.930;15.562;2023-03-11T01:04:00;19.07;;;9.33;;
18689;SDS011;9782;52.930;15.562;2023-03-11T01:06:28;19.43;;;9.07;;
18689;SDS011;9782;52.930;15.562;2023-03-11T01:08:55;13.77;;;7.40;;
18689;SDS011;9782;52.930;15.562;2023-03-11T01:11:22;18.90;;;8.93;;
18689;SDS011;9782;52.930;15.562;2023-03-11T01:13:48;15.57;;;7.93;;
18689;SDS011;9782;52.930;15.562;2023-03-11T01:16:15;14.63;;;7.30;;
18689;SDS011;9782;52.930;15.562;2023-03-11T01:18:42;17.03;;;7.77;;
18689;SDS011;9782;52.930;15.562;2023-03-11T01:21:09;14.27;;;6.93;;
18689;SDS011;9782;52.930;15.562;2023-03-11T01:23:37;17.90;;;8.53;;
18689;SDS011;9782;52.930;15.562;2023-03-11T01:26:04;26.80;;;11.10;;
18689;SDS011;9782;52.930;15.562;2023-03-11T01:28:31;19.43;;;8.53;;
18689;SDS011;9782;52.930;15.562;2023-03-11T01:30:58;20.67;;;9.47;;
18689;SDS011;9782;52.930;15.562;2023-03-11T01:33:25;16.60;;;7.93;;
18689;SDS011;9782;52.930;15.562;2023-03-11T01:35:53;18.73;;;9.43;;
18689;SDS011;9782;52.930;15.562;2023-03-11T01:38:20;13.53;;;6.83;;
18689;SDS011;9782;52.930;15.562;2023-03-11T01:40:49;13.27;;;7.03;;
18689;SDS011;9782;52.930;15.562;2023-03-11T01:43:39;13.40;;;6.63;;
18689;SDS011;9782;52.930;15.562;2023-03-11T01:46:19;16.53;;;8.53;;
18689;SDS011;9782;52.930;15.562;2023-03-11T01:48:48;13.10;;;6.97;;
18689;SDS011;9782;52.930;15.562;2023-03-11T01:51:16;16.40;;;7.87;;
18689;SDS011;9782;52.930;15.562;2023-03-11T01:53:47;17.63;;;8.80;;
18689;SDS011;9782;52.930;15.562;2023-03-11T01:56:16;12.73;;;7.20;;
18689;SDS011;9782;52.930;15.562;2023-03-11T01:58:43;17.30;;;8.17;;
18689;SDS011;9782;52.930;15.562;2023-03-11T02:01:14;12.70;;;6.83;;
18689;SDS011;9782;52.930;15.562;2023-03-11T02:03:41;19.40;;;9.30;;
18689;SDS011;9782;52.930;15.562;2023-03-11T02:06:09;15.33;;;8.50;;
18689;SDS011;9782;52.930;15.562;2023-03-11T02:08:40;21.07;;;10.80;;
18689;SDS011;9782;52.930;15.562;2023-03-11T02:11:08;18.37;;;9.53;;
18689;SDS011;9782;52.930;15.562;2023-03-11T02:13:38;17.77;;;9.90;;
18689;SDS011;9782;52.930;15.562;2023-03-11T02:16:06;12.97;;;6.53;;
18689;SDS011;9782;52.930;15.562;2023-03-11T02:18:33;20.07;;;10.80;;
18689;SDS011;9782;52.930;15.562;2023-03-11T02:21:03;18.40;;;9.20;;
18689;SDS011;9782;52.930;15.562;2023-03-11T02:23:35;19.67;;;9.77;;
18689;SDS011;9782;52.930;15.562;2023-03-11T02:26:10;20.27;;;10.57;;
18689;SDS011;9782;52.930;15.562;2023-03-11T02:28:42;18.77;;;9.83;;
18689;SDS011;9782;52.930;15.562;2023-03-11T02:31:11;22.73;;;11.87;;
18689;SDS011;9782;52.930;15.562;2023-03-11T02:33:39;19.03;;;9.97;;
18689;SDS011;9782;52.930;15.562;2023-03-11T02:38:58;23.77;;;13.13;;
18689;SDS011;9782;52.930;15.562;2023-03-11T02:41:25;21.13;;;11.47;;
18689;SDS011;9782;52.930;15.562;2023-03-11T02:43:54;23.60;;;12.27;;
18689;SDS011;9782;52.930;15.562;2023-03-11T02:46:21;21.63;;;11.63;;
18689;SDS011;9782;52.930;15.562;2023-03-11T02:48:48;22.63;;;12.93;;
18689;SDS011;9782;52.930;15.562;2023-03-11T02:51:17;23.17;;;11.90;;
18689;SDS011;9782;52.930;15.562;2023-03-11T02:53:45;23.57;;;12.37;;
18689;SDS011;9782;52.930;15.562;2023-03-11T02:56:14;25.30;;;12.43;;
18689;SDS011;9782;52.930;15.562;2023-03-11T02:58:41;23.17;;;12.80;;
18689;SDS011;9782;52.930;15.562;2023-03-11T03:01:09;23.13;;;12.73;;
18689;SDS011;9782;52.930;15.562;2023-03-11T03:03:36;21.40;;;11.97;;
18689;SDS011;9782;52.930;15.562;2023-03-11T03:06:03;20.60;;;10.17;;
18689;SDS011;9782;52.930;15.562;2023-03-11T03:08:30;24.60;;;13.40;;
18689;SDS011;9782;52.930;15.562;2023-03-11T03:10:57;22.43;;;12.30;;
18689;SDS011;9782;52.930;15.562;2023-03-11T03:13:25;23.20;;;12.70;;
18689;SDS011;9782;52.930;15.562;2023-03-11T03:15:53;23.33;;;12.70;;
18689;SDS011;9782;52.930;15.562;2023-03-11T03:18:21;25.57;;;13.03;;
18689;SDS011;9782;52.930;15.562;2023-03-11T03:20:49;26.30;;;13.17;;
18689;SDS011;9782;52.930;15.562;2023-03-11T03:23:16;34.17;;;15.63;;
18689;SDS011;9782;52.930;15.562;2023-03-11T03:25:43;24.20;;;11.57;;
18689;SDS011;9782;52.930;15.562;2023-03-11T03:28:10;24.83;;;12.33;;
18689;SDS011;9782;52.930;15.562;2023-03-11T03:30:37;25.33;;;13.17;;
18689;SDS011;9782;52.930;15.562;2023-03-11T03:33:05;23.83;;;12.40;;
18689;SDS011;9782;52.930;15.562;2023-03-11T03:35:33;26.13;;;13.33;;
18689;SDS011;9782;52.930;15.562;2023-03-11T03:38:00;22.13;;;11.37;;
18689;SDS011;9782;52.930;15.562;2023-03-11T03:40:27;23.70;;;12.87;;
18689;SDS011;9782;52.930;15.562;2023-03-11T03:42:54;22.37;;;11.73;;
18689;SDS011;9782;52.930;15.562;2023-03-11T03:45:21;27.23;;;13.97;;
18689;SDS011;9782;52.930;15.562;2023-03-11T03:47:48;22.40;;;11.00;;
18689;SDS011;9782;52.930;15.562;2023-03-11T03:50:15;22.70;;;12.10;;
18689;SDS011;9782;52.930;15.562;2023-03-11T03:52:43;24.33;;;13.13;;
18689;SDS011;9782;52.930;15.562;2023-03-11T03:55:09;26.63;;;14.33;;
18689;SDS011;9782;52.930;15.562;2023-03-11T03:57:36;22.63;;;12.67;;
18689;SDS011;9782;52.930;15.562;2023-03-11T04:00:03;30.70;;;15.40;;
18689;SDS011;9782;52.930;15.562;2023-03-11T04:02:33;23.97;;;13.13;;
18689;SDS011;9782;52.930;15.562;2023-03-11T04:04:59;26.53;;;14.33;;
18689;SDS011;9782;52.930;15.562;2023-03-11T04:07:26;32.03;;;15.93;;
18689;SDS011;9782;52.930;15.562;2023-03-11T04:09:54;25.70;;;13.23;;
18689;SDS011;9782;52.930;15.562;2023-03-11T04:12:21;28.63;;;14.47;;
18689;SDS011;9782;52.930;15.562;2023-03-11T04:14:48;27.10;;;14.60;;
18689;SDS011;9782;52.930;15.562;2023-03-11T04:17:15;29.93;;;14.83;;
18689;SDS011;9782;52.930;15.562;2023-03-11T04:19:42;25.37;;;13.13;;
18689;SDS011;9782;52.930;15.562;2023-03-11T04:22:09;28.67;;;15.50;;
18689;SDS011;9782;52.930;15.562;2023-03-11T04:24:36;33.77;;;16.43;;
18689;SDS011;9782;52.930;15.562;2023-03-11T04:27:04;24.47;;;12.43;;
18689;SDS011;9782;52.930;15.562;2023-03-11T04:29:31;30.23;;;14.43;;
18689;SDS011;9782;52.930;15.562;2023-03-11T04:31:58;30.17;;;16.27;;
18689;SDS011;9782;52.930;15.562;2023-03-11T04:34:25;26.03;;;13.13;;
18689;SDS011;9782;52.930;15.562;2023-03-11T04:36:51;24.63;;;12.67;;
18689;SDS011;9782;52.930;15.562;2023-03-11T04:39:19;20.63;;;10.77;;
18689;SDS011;9782;52.930;15.562;2023-03-11T04:41:46;23.13;;;12.43;;
18689;SDS011;9782;52.930;15.562;2023-03-11T04:44:14;20.60;;;11.17;;
18689;SDS011;9782;52.930;15.562;2023-03-11T04:46:41;17.67;;;9.90;;
18689;SDS011;9782;52.930;15.562;2023-03-11T04:49:07;20.57;;;12.57;;
18689;SDS011;9782;52.930;15.562;2023-03-11T04:51:34;20.13;;;11.87;;
18689;SDS011;9782;52.930;15.562;2023-03-11T04:54:01;16.93;;;10.20;;
18689;SDS011;9782;52.930;15.562;2023-03-11T04:56:28;21.03;;;11.57;;
18689;SDS011;9782;52.930;15.562;2023-03-11T04:58:55;17.47;;;10.27;;
18689;SDS011;9782;52.930;15.562;2023-03-11T05:01:23;19.03;;;11.10;;
18689;SDS011;9782;52.930;15.562;2023-03-11T05:03:50;15.73;;;9.57;;
18689;SDS011;9782;52.930;15.562;2023-03-11T05:06:17;14.27;;;8.43;;
18689;SDS011;9782;52.930;15.562;2023-03-11T05:08:44;17.23;;;9.27;;
18689;SDS011;9782;52.930;15.562;2023-03-11T05:11:11;12.13;;;7.97;;
18689;SDS011;9782;52.930;15.562;2023-03-11T05:13:37;15.83;;;8.47;;
18689;SDS011;9782;52.930;15.562;2023-03-11T05:16:04;13.10;;;7.60;;
18689;SDS011;9782;52.930;15.562;2023-03-11T05:18:33;15.30;;;9.40;;
18689;SDS011;9782;52.930;15.562;2023-03-11T05:21:00;12.10;;;7.63;;
18689;SDS011;9782;52.930;15.562;2023-03-11T05:23:26;14.17;;;8.40;;
18689;SDS011;9782;52.930;15.562;2023-03-11T05:25:53;15.20;;;9.50;;
18689;SDS011;9782;52.930;15.562;2023-03-11T05:28:20;12.20;;;7.20;;
18689;SDS011;9782;52.930;15.562;2023-03-11T05:30:47;14.17;;;8.47;;
18689;SDS011;9782;52.930;15.562;2023-03-11T05:33:14;13.60;;;8.63;;
18689;SDS011;9782;52.930;15.562;2023-03-11T05:35:42;10.97;;;8.03;;
18689;SDS011;9782;52.930;15.562;2023-03-11T05:38:09;12.80;;;8.10;;
18689;SDS011;9782;52.930;15.562;2023-03-11T05:40:36;9.83;;;6.50;;
18689;SDS011;9782;52.930;15.562;2023-03-11T05:43:02;14.07;;;7.23;;
18689;SDS011;9782;52.930;15.562;2023-03-11T05:45:29;12.97;;;8.43;;
18689;SDS011;9782;52.930;15.562;2023-03-11T05:47:56;12.60;;;8.37;;
18689;SDS011;9782;52.930;15.562;2023-03-11T05:50:23;10.53;;;6.83;;
18689;SDS011;9782;52.930;15.562;2023-03-11T05:52:51;12.67;;;7.93;;
18689;SDS011;9782;52.930;15.562;2023-03-11T05:55:18;11.47;;;7.07;;
18689;SDS011;9782;52.930;15.562;2023-03-11T05:57:45;13.20;;;7.80;;
18689;SDS011;9782;52.930;15.562;2023-03-11T06:00:12;13.83;;;8.70;;
18689;SDS011;9782;52.930;15.562;2023-03-11T06:02:40;13.63;;;8.27;;
18689;SDS011;9782;52.930;15.562;2023-03-11T06:05:07;11.30;;;7.43;;
18689;SDS011;9782;52.930;15.562;2023-03-11T06:07:35;11.30;;;7.50;;
18689;SDS011;9782;52.930;15.562;2023-03-11T06:10:03;13.77;;;7.90;;
18689;SDS011;9782;52.930;15.562;2023-03-11T06:12:32;9.20;;;6.30;;
18689;SDS011;9782;52.930;15.562;2023-03-11T06:14:59;12.23;;;7.07;;
18689;SDS011;9782;52.930;15.562;2023-03-11T06:17:26;12.23;;;8.00;;
18689;SDS011;9782;52.930;15.562;2023-03-11T06:19:52;10.37;;;7.07;;
18689;SDS011;9782;52.930;15.562;2023-03-11T06:22:19;8.27;;;5.17;;
18689;SDS011;9782;52.930;15.562;2023-03-11T06:24:46;10.03;;;6.43;;
18689;SDS011;9782;52.930;15.562;2023-03-11T06:27:15;10.87;;;6.70;;
18689;SDS011;9782;52.930;15.562;2023-03-11T06:53:08;7.67;;;5.13;;
18689;SDS011;9782;52.930;15.562;2023-03-11T06:55:35;10.07;;;5.57;;
18689;SDS011;9782;52.930;15.562;2023-03-11T06:58:02;10.60;;;6.50;;
18689;SDS011;9782;52.930;15.562;2023-03-11T07:00:29;6.70;;;4.57;;
18689;SDS011;9782;52.930;15.562;2023-03-11T07:02:55;7.77;;;5.40;;
18689;SDS011;9782;52.930;15.562;2023-03-11T07:05:22;8.47;;;5.87;;
18689;SDS011;9782;52.930;15.562;2023-03-11T07:07:51;7.13;;;4.57;;
18689;SDS011;9782;52.930;15.562;2023-03-11T07:10:20;6.67;;;4.47;;
18689;SDS011;9782;52.930;15.562;2023-03-11T07:12:47;5.93;;;3.27;;
18689;SDS011;9782;52.930;15.562;2023-03-11T07:15:14;6.00;;;3.60;;
18689;SDS011;9782;52.930;15.562;2023-03-11T07:17:41;5.87;;;3.53;;
18689;SDS011;9782;52.930;15.562;2023-03-11T07:20:08;6.77;;;3.57;;
18689;SDS011;9782;52.930;15.562;2023-03-11T07:22:36;5.37;;;4.13;;
18689;SDS011;9782;52.930;15.562;2023-03-11T07:25:03;5.57;;;4.07;;
18689;SDS011;9782;52.930;15.562;2023-03-11T07:27:32;6.83;;;4.30;;
18689;SDS011;9782;52.930;15.562;2023-03-11T07:29:59;5.80;;;3.20;;
18689;SDS011;9782;52.930;15.562;2023-03-11T07:32:26;9.90;;;5.87;;
18689;SDS011;9782;52.930;15.562;2023-03-11T07:34:53;5.00;;;3.43;;
18689;SDS011;9782;52.930;15.562;2023-03-11T07:37:20;8.57;;;5.43;;
18689;SDS011;9782;52.930;15.562;2023-03-11T07:39:47;5.87;;;4.07;;
18689;SDS011;9782;52.930;15.562;2023-03-11T07:42:14;5.93;;;3.90;;
18689;SDS011;9782;52.930;15.562;2023-03-11T07:44:42;8.40;;;5.00;;
18689;SDS011;9782;52.930;15.562;2023-03-11T07:47:08;6.03;;;4.17;;
18689;SDS011;9782;52.930;15.562;2023-03-11T07:49:35;3.93;;;2.97;;
18689;SDS011;9782;52.930;15.562;2023-03-11T07:52:02;6.50;;;3.73;;
18689;SDS011;9782;52.930;15.562;2023-03-11T07:54:29;7.53;;;4.63;;
18689;SDS011;9782;52.930;15.562;2023-03-11T07:56:56;6.37;;;4.53;;
18689;SDS011;9782;52.930;15.562;2023-03-11T07:59:23;7.30;;;4.27;;
18689;SDS011;9782;52.930;15.562;2023-03-11T08:01:51;7.40;;;4.37;;
18689;SDS011;9782;52.930;15.562;2023-03-11T08:04:18;7.93;;;3.80;;
18689;SDS011;9782;52.930;15.562;2023-03-11T08:06:45;4.83;;;3.30;;
18689;SDS011;9782;52.930;15.562;2023-03-11T08:09:13;6.50;;;4.93;;
18689;SDS011;9782;52.930;15.562;2023-03-11T08:11:40;6.10;;;3.87;;
18689;SDS011;9782;52.930;15.562;2023-03-11T08:14:07;8.33;;;4.70;;
18689;SDS011;9782;52.930;15.562;2023-03-11T08:16:34;7.27;;;4.87;;
18689;SDS011;9782;52.930;15.562;2023-03-11T08:19:02;7.70;;;5.57;;
18689;SDS011;9782;52.930;15.562;2023-03-11T08:21:29;11.07;;;6.50;;
18689;SDS011;9782;52.930;15.562;2023-03-11T08:23:56;9.63;;;5.97;;
18689;SDS011;9782;52.930;15.562;2023-03-11T08:26:24;9.03;;;5.50;;
18689;SDS011;9782;52.930;15.562;2023-03-11T08:28:52;8.53;;;5.30;;
18689;SDS011;9782;52.930;15.562;2023-03-11T08:31:21;7.20;;;5.47;;
18689;SDS011;9782;52.930;15.562;2023-03-11T08:33:49;8.10;;;4.23;;
18689;SDS011;9782;52.930;15.562;2023-03-11T08:36:19;5.93;;;4.03;;
18689;SDS011;9782;52.930;15.562;2023-03-11T08:38:46;5.43;;;4.07;;
18689;SDS011;9782;52.930;15.562;2023-03-11T08:41:13;6.10;;;3.87;;
18689;SDS011;9782;52.930;15.562;2023-03-11T08:43:40;7.87;;;3.93;;
18689;SDS011;9782;52.930;15.562;2023-03-11T08:46:09;6.50;;;4.63;;
18689;SDS011;9782;52.930;15.562;2023-03-11T08:48:42;6.47;;;4.30;;
18689;SDS011;9782;52.930;15.562;2023-03-11T08:51:10;9.13;;;6.13;;
18689;SDS011;9782;52.930;15.562;2023-03-11T08:53:38;8.17;;;5.40;;
18689;SDS011;9782;52.930;15.562;2023-03-11T08:56:05;10.57;;;7.60;;
18689;SDS011;9782;52.930;15.562;2023-03-11T08:58:32;8.83;;;4.83;;
18689;SDS011;9782;52.930;15.562;2023-03-11T09:00:59;8.67;;;5.70;;
18689;SDS011;9782;52.930;15.562;2023-03-11T09:03:26;9.40;;;5.53;;
18689;SDS011;9782;52.930;15.562;2023-03-11T09:05:57;8.00;;;5.30;;
18689;SDS011;9782;52.930;15.562;2023-03-11T09:08:24;7.83;;;4.60;;
18689;SDS011;9782;52.930;15.562;2023-03-11T09:10:52;8.97;;;5.13;;
18689;SDS011;9782;52.930;15.562;2023-03-11T09:13:19;8.00;;;4.20;;
18689;SDS011;9782;52.930;15.562;2023-03-11T09:15:46;10.83;;;6.53;;
18689;SDS011;9782;52.930;15.562;2023-03-11T09:18:13;12.73;;;6.73;;
18689;SDS011;9782;52.930;15.562;2023-03-11T09:20:41;10.33;;;4.40;;
18689;SDS011;9782;52.930;15.562;2023-03-11T09:23:09;16.27;;;7.90;;
18689;SDS011;9782;52.930;15.562;2023-03-11T09:25:37;9.07;;;4.20;;
18689;SDS011;9782;52.930;15.562;2023-03-11T09:28:06;8.13;;;5.20;;
18689;SDS011;9782;52.930;15.562;2023-03-11T09:30:33;8.43;;;4.43;;
18689;SDS011;9782;52.930;15.562;2023-03-11T09:33:00;5.10;;;3.80;;
18689;SDS011;9782;52.930;15.562;2023-03-11T09:35:27;4.13;;;2.80;;
18689;SDS011;9782;52.930;15.562;2023-03-11T09:37:53;5.60;;;3.53;;
18689;SDS011;9782;52.930;15.562;2023-03-11T09:40:21;3.37;;;2.50;;
18689;SDS011;9782;52.930;15.562;2023-03-11T09:42:53;6.70;;;3.57;;
18689;SDS011;9782;52.930;15.562;2023-03-11T09:45:30;4.67;;;2.43;;
18689;SDS011;9782;52.930;15.562;2023-03-11T09:48:04;3.53;;;2.47;;
18689;SDS011;9782;52.930;15.562;2023-03-11T09:50:43;5.17;;;2.30;;
18689;SDS011;9782;52.930;15.562;2023-03-11T09:53:18;4.93;;;3.13;;
18689;SDS011;9782;52.930;15.562;2023-03-11T09:55:52;5.70;;;3.17;;
18689;SDS011;9782;52.930;15.562;2023-03-11T09:58:22;5.30;;;2.90;;
18689;SDS011;9782;52.930;15.562;2023-03-11T10:01:03;5.30;;;3.23;;
18689;SDS011;9782;52.930;15.562;2023-03-11T10:03:41;4.63;;;3.00;;
18689;SDS011;9782;52.930;15.562;2023-03-11T10:06:13;6.90;;;3.60;;
18689;SDS011;9782;52.930;15.562;2023-03-11T10:08:42;4.77;;;2.90;;
18689;SDS011;9782;52.930;15.562;2023-03-11T10:11:18;5.50;;;3.00;;
18689;SDS011;9782;52.930;15.562;2023-03-11T10:13:57;5.87;;;3.97;;
18689;SDS011;9782;52.930;15.562;2023-03-11T10:16:34;6.90;;;3.07;;
18689;SDS011;9782;52.930;15.562;2023-03-11T10:19:09;5.77;;;3.50;;
18689;SDS011;9782;52.930;15.562;2023-03-11T10:21:40;5.83;;;3.17;;
18689;SDS011;9782;52.930;15.562;2023-03-11T10:24:16;6.27;;;3.30;;
18689;SDS011;9782;52.930;15.562;2023-03-11T10:26:58;8.57;;;5.20;;
18689;SDS011;9782;52.930;15.562;2023-03-11T10:29:28;6.37;;;4.10;;
18689;SDS011;9782;52.930;15.562;2023-03-11T10:32:01;9.27;;;4.17;;
18689;SDS011;9782;52.930;15.562;2023-03-11T10:34:33;4.97;;;3.40;;
18689;SDS011;9782;52.930;15.562;2023-03-11T10:37:05;7.43;;;3.53;;
18689;SDS011;9782;52.930;15.562;2023-03-11T10:39:37;6.97;;;3.60;;
18689;SDS011;9782;52.930;15.562;2023-03-11T10:42:09;13.83;;;6.63;;
18689;SDS011;9782;52.930;15.562;2023-03-11T10:44:38;6.87;;;4.33;;
18689;SDS011;9782;52.930;15.562;2023-03-11T10:47:11;9.83;;;5.07;;
18689;SDS011;9782;52.930;15.562;2023-03-11T10:49:42;6.07;;;4.17;;
18689;SDS011;9782;52.930;15.562;2023-03-11T10:52:08;6.17;;;4.10;;
18689;SDS011;9782;52.930;15.562;2023-03-11T10:54:36;8.23;;;4.73;;
18689;SDS011;9782;52.930;15.562;2023-03-11T10:57:05;7.90;;;5.27;;
18689;SDS011;9782;52.930;15.562;2023-03-11T10:59:46;6.50;;;4.40;;
18689;SDS011;9782;52.930;15.562;2023-03-11T11:02:22;4.47;;;3.20;;
18689;SDS011;9782;52.930;15.562;2023-03-11T11:05:01;5.67;;;4.03;;
18689;SDS011;9782;52.930;15.562;2023-03-11T11:07:32;4.83;;;2.60;;
18689;SDS011;9782;52.930;15.562;2023-03-11T11:10:14;6.30;;;3.63;;
18689;SDS011;9782;52.930;15.562;2023-03-11T11:12:50;5.53;;;2.83;;
18689;SDS011;9782;52.930;15.562;2023-03-11T11:15:21;3.83;;;1.87;;
18689;SDS011;9782;52.930;15.562;2023-03-11T11:17:51;2.17;;;1.90;;
18689;SDS011;9782;52.930;15.562;2023-03-11T11:20:20;2.87;;;2.03;;
18689;SDS011;9782;52.930;15.562;2023-03-11T11:22:50;3.43;;;2.17;;
18689;SDS011;9782;52.930;15.562;2023-03-11T11:25:28;4.13;;;2.43;;
18689;SDS011;9782;52.930;15.562;2023-03-11T11:27:57;4.63;;;2.10;;
18689;SDS011;9782;52.930;15.562;2023-03-11T11:30:26;3.30;;;2.17;;
18689;SDS011;9782;52.930;15.562;2023-03-11T11:32:55;2.63;;;1.77;;
18689;SDS011;9782;52.930;15.562;2023-03-11T11:35:22;3.43;;;2.57;;
18689;SDS011;9782;52.930;15.562;2023-03-11T11:37:50;7.20;;;4.00;;
18689;SDS011;9782;52.930;15.562;2023-03-11T11:40:25;7.33;;;4.90;;
18689;SDS011;9782;52.930;15.562;2023-03-11T11:42:54;6.33;;;2.90;;
18689;SDS011;9782;52.930;15.562;2023-03-11T11:45:33;5.60;;;3.10;;
18689;SDS011;9782;52.930;15.562;2023-03-11T11:48:05;4.67;;;2.63;;
18689;SDS011;9782;52.930;15.562;2023-03-11T11:50:40;3.60;;;2.13;;
18689;SDS011;9782;52.930;15.562;2023-03-11T11:53:14;2.17;;;1.73;;
18689;SDS011;9782;52.930;15.562;2023-03-11T11:55:49;5.27;;;2.67;;
18689;SDS011;9782;52.930;15.562;2023-03-11T11:58:18;5.03;;;2.87;;
18689;SDS011;9782;52.930;15.562;2023-03-11T12:00:49;3.60;;;2.20;;
18689;SDS011;9782;52.930;15.562;2023-03-11T12:03:43;5.97;;;1.70;;
18689;SDS011;9782;52.930;15.562;2023-03-11T12:06:30;2.97;;;1.80;;
18689;SDS011;9782;52.930;15.562;2023-03-11T12:09:05;4.70;;;2.40;;
18689;SDS011;9782;52.930;15.562;2023-03-11T12:11:40;3.30;;;2.43;;
18689;SDS011;9782;52.930;15.562;2023-03-11T12:14:13;2.60;;;1.90;;
18689;SDS011;9782;52.930;15.562;2023-03-11T12:16:46;4.97;;;2.33;;
18689;SDS011;9782;52.930;15.562;2023-03-11T12:19:24;4.50;;;2.40;;
18689;SDS011;9782;52.930;15.562;2023-03-11T12:25:00;4.03;;;2.53;;
18689;SDS011;9782;52.930;15.562;2023-03-11T12:27:46;3.50;;;2.10;;
18689;SDS011;9782;52.930;15.562;2023-03-11T12:30:17;5.07;;;2.00;;
18689;SDS011;9782;52.930;15.562;2023-03-11T12:32:48;4.43;;;2.83;;
18689;SDS011;9782;52.930;15.562;2023-03-11T12:35:22;5.70;;;3.90;;
18689;SDS011;9782;52.930;15.562;2023-03-11T12:37:55;7.43;;;4.83;;
18689;SDS011;9782;52.930;15.562;2023-03-11T12:43:22;6.87;;;3.30;;
18689;SDS011;9782;52.930;15.562;2023-03-11T12:46:15;7.87;;;4.73;;
18689;SDS011;9782;52.930;15.562;2023-03-11T12:48:43;8.90;;;6.23;;
18689;SDS011;9782;52.930;15.562;2023-03-11T12:56:49;23.23;;;13.53;;
18689;SDS011;9782;52.930;15.562;2023-03-11T13:02:24;21.40;;;12.87;;
18689;SDS011;9782;52.930;15.562;2023-03-11T13:05:13;16.50;;;9.67;;
18689;SDS011;9782;52.930;15.562;2023-03-11T13:07:47;18.50;;;12.23;;
18689;SDS011;9782;52.930;15.562;2023-03-11T13:10:22;15.17;;;8.83;;
18689;SDS011;9782;52.930;15.562;2023-03-11T13:13:01;7.97;;;6.00;;
18689;SDS011;9782;52.930;15.562;2023-03-11T13:15:47;7.40;;;5.07;;
18689;SDS011;9782;52.930;15.562;2023-03-11T13:18:15;18.13;;;10.20;;
18689;SDS011;9782;52.930;15.562;2023-03-11T13:20:51;13.47;;;9.73;;
18689;SDS011;9782;52.930;15.562;2023-03-11T13:23:26;12.10;;;7.83;;
18689;SDS011;9782;52.930;15.562;2023-03-11T13:26:01;11.40;;;7.00;;
18689;SDS011;9782;52.930;15.562;2023-03-11T13:28:50;7.63;;;4.80;;
18689;SDS011;9782;52.930;15.562;2023-03-11T13:31:41;11.33;;;8.20;;
18689;SDS011;9782;52.930;15.562;2023-03-11T13:34:16;10.80;;;6.73;;
18689;SDS011;9782;52.930;15.562;2023-03-11T13:37:01;7.27;;;4.23;;
18689;SDS011;9782;52.930;15.562;2023-03-11T13:39:44;4.80;;;3.63;;
18689;SDS011;9782;52.930;15.562;2023-03-11T13:42:22;4.93;;;3.83;;
18689;SDS011;9782;52.930;15.562;2023-03-11T13:44:55;5.33;;;3.70;;
18689;SDS011;9782;52.930;15.562;2023-03-11T13:47:22;5.17;;;3.00;;
18689;SDS011;9782;52.930;15.562;2023-03-11T13:49:53;8.23;;;4.03;;
18689;SDS011;9782;52.930;15.562;2023-03-11T13:52:26;7.03;;;5.07;;
18689;SDS011;9782;52.930;15.562;2023-03-11T13:54:58;6.60;;;4.63;;
18689;SDS011;9782;52.930;15.562;2023-03-11T13:57:28;7.40;;;4.67;;
18689;SDS011;9782;52.930;15.562;2023-03-11T13:59:57;9.77;;;5.37;;
18689;SDS011;9782;52.930;15.562;2023-03-11T14:02:30;9.53;;;5.63;;
18689;SDS011;9782;52.930;15.562;2023-03-11T14:05:02;5.47;;;3.77;;
18689;SDS011;9782;52.930;15.562;2023-03-11T14:07:31;5.23;;;3.30;;
18689;SDS011;9782;52.930;15.562;2023-03-11T14:10:13;5.57;;;3.40;;
18689;SDS011;9782;52.930;15.562;2023-03-11T14:12:42;6.30;;;3.30;;
18689;SDS011;9782;52.930;15.562;2023-03-11T14:15:11;5.13;;;2.70;;
18689;SDS011;9782;52.930;15.562;2023-03-11T14:17:41;6.83;;;3.67;;
18689;SDS011;9782;52.930;15.562;2023-03-11T14:20:12;5.37;;;3.50;;
18689;SDS011;9782;52.930;15.562;2023-03-11T14:22:44;3.87;;;2.93;;
18689;SDS011;9782;52.930;15.562;2023-03-11T14:25:15;6.77;;;3.50;;
18689;SDS011;9782;52.930;15.562;2023-03-11T14:27:45;4.27;;;3.33;;
18689;SDS011;9782;52.930;15.562;2023-03-11T14:30:20;5.57;;;3.17;;
18689;SDS011;9782;52.930;15.562;2023-03-11T14:32:57;6.07;;;3.17;;
18689;SDS011;9782;52.930;15.562;2023-03-11T14:35:26;4.27;;;3.37;;
18689;SDS011;9782;52.930;15.562;2023-03-11T14:37:55;5.63;;;3.13;;
18689;SDS011;9782;52.930;15.562;2023-03-11T14:40:24;3.97;;;2.87;;
18689;SDS011;9782;52.930;15.562;2023-03-11T14:42:53;4.63;;;3.30;;
18689;SDS011;9782;52.930;15.562;2023-03-11T14:45:23;4.83;;;3.10;;
18689;SDS011;9782;52.930;15.562;2023-03-11T14:47:54;3.07;;;2.10;;
18689;SDS011;9782;52.930;15.562;2023-03-11T14:50:29;5.07;;;3.73;;
18689;SDS011;9782;52.930;15.562;2023-03-11T14:52:59;18.27;;;8.43;;
18689;SDS011;9782;52.930;15.562;2023-03-11T14:55:30;26.37;;;12.57;;
18689;SDS011;9782;52.930;15.562;2023-03-11T14:58:01;10.50;;;6.80;;
18689;SDS011;9782;52.930;15.562;2023-03-11T15:00:32;21.90;;;12.93;;
18689;SDS011;9782;52.930;15.562;2023-03-11T15:03:02;36.30;;;22.37;;
18689;SDS011;9782;52.930;15.562;2023-03-11T15:05:43;22.43;;;14.50;;
18689;SDS011;9782;52.930;15.562;2023-03-11T15:08:14;17.73;;;14.10;;
18689;SDS011;9782;52.930;15.562;2023-03-11T15:13:26;10.77;;;8.13;;
18689;SDS011;9782;52.930;15.562;2023-03-11T15:15:56;9.10;;;5.40;;
18689;SDS011;9782;52.930;15.562;2023-03-11T15:18:24;8.63;;;6.53;;
18689;SDS011;9782;52.930;15.562;2023-03-11T15:21:03;7.83;;;4.37;;
18689;SDS011;9782;52.930;15.562;2023-03-11T15:23:33;8.87;;;6.37;;
18689;SDS011;9782;52.930;15.562;2023-03-11T15:26:01;5.80;;;4.33;;
18689;SDS011;9782;52.930;15.562;2023-03-11T15:28:31;12.30;;;5.90;;
18689;SDS011;9782;52.930;15.562;2023-03-11T15:31:15;5.90;;;4.30;;
18689;SDS011;9782;52.930;15.562;2023-03-11T15:33:51;6.50;;;3.80;;
18689;SDS011;9782;52.930;15.562;2023-03-11T15:36:29;6.37;;;4.23;;